^^
Station Historical Data
Daily Summary for October 7, 2017 Units:  Metric    English   Both
« Previous Day
Next Day »
Daily Weekly Monthly Yearly Custom
  High: Low: Average:
Temperature: 30.7 °C 10.1 °C 19.6 °C
Dew Point: 7.4 °C -6.8 °C -1.6 °C
Humidity: 68% 9% 29%
Wind Speed: 30.6km/h 0km/h 7.6km/h
Wind Gust: 38.6km/h - -
Wind- - SW
Pressure: 1011.7 hPa 1005.3 hPa -
Precipitation: 0 mm    
Historical Graphs
 
 
Tabular Data for October 7, 2017
Time Temperature Dew Point Pressure Wind Wind Speed Wind Gust Humidity Rainfall Rate (Hourly) solar Conditions
04:27 11.7 °C -3.7 °C 1010 hPa Calm     34% 0 mm 0.0 W/m2
04:32 11.6 °C -3.7 °C 1010 hPa Calm     34% 0 mm 0.0 W/m2
04:37 11.3 °C -4.8 °C 1010 hPa Calm     32% 0 mm 0.0 W/m2
04:42 11.1 °C -5 °C 1010 hPa Calm     32% 0 mm 0.0 W/m2
04:47 10.9 °C -4.4 °C 1010 hPa Calm     34% 0 mm 0.0 W/m2
04:58 11 °C -4.7 °C 1010 hPa Calm     33% 0 mm 0.0 W/m2
05:03 11.1 °C -4.2 °C 1010 hPa Calm     34% 0 mm 0.0 W/m2
05:08 11.1 °C -4.2 °C 1010 hPa Calm     34% 0 mm 0.0 W/m2
05:18 10.9 °C -4.4 °C 1010 hPa Calm     34% 0 mm 0.0 W/m2
05:29 10.8 °C -4.8 °C 1010 hPa Calm     33% 0 mm 0.0 W/m2
05:34 10.7 °C -4.1 °C 1010.4 hPa Calm     35% 0 mm 0.0 W/m2
05:39 10.6 °C -4.6 °C 1010 hPa Calm     34% 0 mm 0.0 W/m2
05:44 10.6 °C -5 °C 1010.4 hPa Calm     33% 0 mm 0.0 W/m2
05:54 10.7 °C -4.5 °C 1010.4 hPa Calm     34% 0 mm 0.0 W/m2
05:59 10.7 °C -4.9 °C 1010.4 hPa Calm     33% 0 mm 0.0 W/m2
06:05 10.7 °C -4.9 °C 1010.7 hPa Calm     33% 0 mm 0.0 W/m2
06:10 10.7 °C -4.9 °C 1010.7 hPa Calm     33% 0 mm 0.0 W/m2
06:20 10.3 °C -4.9 °C 1010.7 hPa Calm     34% 0 mm 0.0 W/m2
06:25 10.2 °C -4.6 °C 1011.1 hPa Calm     35% 0 mm 5.0 W/m2
06:35 10.1 °C -3.9 °C 1011.1 hPa Calm     37% 0 mm 12.0 W/m2
06:40 10.2 °C -4.6 °C 1011.1 hPa Calm     35% 0 mm 16.0 W/m2
06:45 10.3 °C -4.1 °C 1011.1 hPa Calm     36% 0 mm 25.0 W/m2
06:50 10.7 °C -4.5 °C 1011.1 hPa Calm     34% 0 mm 39.0 W/m2
06:55 11 °C -4.3 °C 1011.1 hPa Calm     34% 0 mm 54.0 W/m2
07:02 11.3 °C -5.2 °C 1011.1 hPa Calm     31% 0 mm 70.0 W/m2
07:16 12.3 °C -4.4 °C 1011.4 hPa Calm     31% 0 mm 111.0 W/m2
07:26 13.9 °C -3.9 °C 1011.4 hPa Calm     29% 0 mm 178.0 W/m2
07:34 14.5 °C -3.3 °C 1011.4 hPa Calm     29% 0 mm 202.0 W/m2
07:47 15.3 °C -2.6 °C 1011.7 hPa Calm     29% 0 mm 244.0 W/m2
08:17 17.9 °C -6.8 °C 1011.7 hPa Calm     18% 0 mm 355.0 W/m2
08:27 18.5 °C -6.3 °C 1011.7 hPa Calm     18% 0 mm 392.0 W/m2
08:35 19.2 °C -5.7 °C 1011.4 hPa Calm     18% 0 mm 420.0 W/m2
08:43 20.1 °C -5.7 °C 1011.4 hPa Calm     17% 0 mm 462.0 W/m2
08:56 20.8 °C -6 °C 1011.4 hPa Calm     16% 0 mm 497.0 W/m2
09:05 21.2 °C -5.6 °C 1011.4 hPa Calm     16% 0 mm 531.0 W/m2
09:11 21.3 °C -5.5 °C 1011.4 hPa Calm     16% 0 mm 527.0 W/m2
09:17 21.6 °C -5.3 °C 1011.1 hPa Calm     16% 0 mm 527.0 W/m2
09:30 22.1 °C -4.1 °C 1011.1 hPa Calm     17% 0 mm 582.0 W/m2
09:45 22.9 °C -4.3 °C 1010.7 hPa Calm     16% 0 mm 643.0 W/m2
10:00 23.4 °C -4.7 °C 1010.7 hPa Calm   4.8 km/h 15% 0 mm 686.0 W/m2
10:17 23.7 °C -5.4 °C 1010.7 hPa Calm     14% 0 mm 722.0 W/m2
10:31 24.4 °C -5.8 °C 1010.7 hPa Calm     13% 0 mm 758.0 W/m2
10:40 25.3 °C -5.1 °C 1010.4 hPa Calm   9.7 km/h 13% 0 mm 784.0 W/m2
10:52 25.4 °C -5 °C 1010.4 hPa South 1.4 km/h 6.4 km/h 13% 0 mm 803.0 W/m2
11:01 25.7 °C -5.8 °C 1010 hPa Calm     12% 0 mm 816.0 W/m2
11:09 26 °C -4.6 °C 1010 hPa Calm     13% 0 mm 830.0 W/m2
11:14 26.2 °C -4.4 °C 1010 hPa SSW 4.7 km/h 4.8 km/h 13% 0 mm 840.0 W/m2
11:22 26.3 °C -4.3 °C 1009.7 hPa Calm     13% 0 mm 860.0 W/m2
11:32 26.7 °C -4 °C 1009.7 hPa Calm     13% 0 mm 868.0 W/m2
11:37 26.7 °C -4 °C 1009.7 hPa Calm   8 km/h 13% 0 mm 875.0 W/m2
11:42 27.1 °C -3.7 °C 1009.4 hPa SSW 4.7 km/h 9.7 km/h 13% 0 mm 879.0 W/m2
11:48 27 °C -3.8 °C 1009.4 hPa Calm     13% 0 mm 886.0 W/m2
11:54 27.2 °C -3.6 °C 1009.4 hPa SSW 3.2 km/h 12.9 km/h 13% 0 mm 889.0 W/m2
12:01 27.2 °C -4.7 °C 1009.4 hPa Calm     12% 0 mm 893.0 W/m2
12:10 27.7 °C -3.2 °C 1009 hPa Calm   19.3 km/h 13% 0 mm 900.0 W/m2
12:28 28.1 °C -4 °C 1008.7 hPa WSW 1.4 km/h 17.7 km/h 12% 0 mm 904.0 W/m2
12:43 28.2 °C -3.9 °C 1008.7 hPa West 6.4 km/h 17.7 km/h 12% 0 mm 904.0 W/m2
12:51 28.6 °C -3.6 °C 1008.4 hPa West 17.7 km/h 20.9 km/h 12% 0 mm 902.0 W/m2
13:00 28.7 °C -4.7 °C 1008.4 hPa West 19.5 km/h 20.9 km/h 11% 0 mm 900.0 W/m2
13:05 28.4 °C -4.9 °C 1008 hPa West 6.4 km/h 11.3 km/h 11% 0 mm 896.0 W/m2
13:25 28.9 °C -3.4 °C 1007.7 hPa Calm   9.7 km/h 12% 0 mm 888.0 W/m2
13:38 29 °C -3.3 °C 1007.7 hPa WNW 3.2 km/h 19.3 km/h 12% 0 mm 872.0 W/m2
13:48 29.2 °C -4.3 °C 1007.3 hPa WNW 17.7 km/h 20.9 km/h 11% 0 mm 861.0 W/m2
13:57 29.4 °C -4.1 °C 1007.3 hPa WNW 9.7 km/h 17.7 km/h 11% 0 mm 847.0 W/m2
14:07 29.4 °C -4.1 °C 1007 hPa Calm     11% 0 mm 838.0 W/m2
14:13 29.8 °C -3.8 °C 1007 hPa Calm     11% 0 mm 838.0 W/m2
14:24 30.4 °C -4.6 °C 1006.7 hPa Calm     10% 0 mm 812.0 W/m2
14:33 30.4 °C -4.6 °C 1006.7 hPa WNW 6.4 km/h 16.1 km/h 10% 0 mm 788.0 W/m2
14:42 30.1 °C -4.9 °C 1006.3 hPa WNW 17.7 km/h 20.9 km/h 10% 0 mm 765.0 W/m2
14:52 30.2 °C -4.8 °C 1006.3 hPa WNW 4.7 km/h 12.9 km/h 10% 0 mm 742.0 W/m2
14:58 30.4 °C -4.6 °C 1006.3 hPa WNW 6.4 km/h 16.1 km/h 10% 0 mm 729.0 W/m2
15:24 30.3 °C -6.1 °C 1006 hPa West 11.1 km/h 11.3 km/h 9% 0 mm 670.0 W/m2
15:51 30.5 °C -6 °C 1005.6 hPa WSW 9.7 km/h 12.9 km/h 9% 0 mm 596.0 W/m2
16:07 30.7 °C -5.8 °C 1005.3 hPa WSW 6.4 km/h 16.1 km/h 9% 0 mm 548.0 W/m2
16:51 28.2 °C 0.8 °C 1005.6 hPa SSW 30.6 km/h 38.6 km/h 17% 0 mm 388.0 W/m2
17:06 27.4 °C 1 °C 1005.6 hPa SSW 27.4 km/h 37 km/h 18% 0 mm 341.0 W/m2
17:21 26.6 °C 1.1 °C 1006 hPa SSW 30.6 km/h 35.4 km/h 19% 0 mm 285.0 W/m2
17:36 25.8 °C 1.1 °C 1006.3 hPa SSW 25.9 km/h 35.4 km/h 20% 0 mm 232.0 W/m2
18:23 23.4 °C 2.2 °C 1006.7 hPa SW 30.6 km/h 35.4 km/h 25% 0 mm 21.0 W/m2
18:36 22.2 °C 3.8 °C 1006.7 hPa SW 22.7 km/h 33.8 km/h 30% 0 mm 11.0 W/m2
19:52 19.2 °C 6.3 °C 1008 hPa SSW 27.4 km/h 27.4 km/h 43% 0 mm 0.0 W/m2
20:07 18.6 °C 6.8 °C 1008.4 hPa SW 30.6 km/h 30.6 km/h 46% 0 mm 0.0 W/m2
20:23 18.1 °C 6.9 °C 1008.7 hPa SSW 16.3 km/h 22.5 km/h 48% 0 mm 0.0 W/m2
20:38 17.7 °C 7.1 °C 1009 hPa SSW 16.3 km/h 25.7 km/h 50% 0 mm 0.0 W/m2
20:52 17.4 °C 7.2 °C 1009 hPa SW 17.7 km/h 27.4 km/h 51% 0 mm 0.0 W/m2
21:07 17 °C 7.1 °C 1009 hPa SW 19.5 km/h 24.1 km/h 52% 0 mm 0.0 W/m2
21:23 16.7 °C 7.1 °C 1009.4 hPa SW 20.9 km/h 27.4 km/h 53% 0 mm 0.0 W/m2
21:38 16.3 °C 6.7 °C 1009.4 hPa SSW 17.7 km/h 17.7 km/h 53% 0 mm 0.0 W/m2
21:53 16.1 °C 6.8 °C 1009.4 hPa SSW 19.5 km/h 24.1 km/h 54% 0 mm 0.0 W/m2
22:07 15.6 °C 6.6 °C 1009.7 hPa SW 16.3 km/h 24.1 km/h 55% 0 mm 0.0 W/m2
22:21 15.1 °C 6.9 °C 1009.7 hPa SSW 24.1 km/h 25.7 km/h 58% 0 mm 0.0 W/m2
22:27 14.9 °C 7 °C 1009.7 hPa SW 19.5 km/h 24.1 km/h 59% 0 mm 0.0 W/m2
22:37 14.8 °C 7.1 °C 1009.7 hPa SSW 16.3 km/h 24.1 km/h 60% 0 mm 0.0 W/m2
22:42 14.7 °C 7.3 °C 1009.7 hPa SSW 16.3 km/h 24.1 km/h 61% 0 mm 0.0 W/m2
22:52 14.5 °C 7.3 °C 1009.7 hPa SSW 19.5 km/h 20.9 km/h 62% 0 mm 0.0 W/m2
22:57 14.4 °C 7.2 °C 1009.7 hPa SSW 20.9 km/h 25.7 km/h 62% 0 mm 0.0 W/m2
23:02 14.3 °C 7.4 °C 1009.7 hPa SSW 16.3 km/h 22.5 km/h 63% 0 mm 0.0 W/m2
23:07 14.2 °C 7.3 °C 1009.7 hPa SSW 16.3 km/h 22.5 km/h 63% 0 mm 0.0 W/m2
23:17 13.9 °C 7.2 °C 1009.7 hPa South 22.7 km/h 22.7 km/h 64% 0 mm 0.0 W/m2
23:28 13.7 °C 7.2 °C 1009.7 hPa SSW 16.3 km/h 24.1 km/h 65% 0 mm 0.0 W/m2
23:33 13.6 °C 7.4 °C 1009.7 hPa South 19.5 km/h 29 km/h 66% 0 mm 0.0 W/m2
23:42 13.2 °C 7.2 °C 1010 hPa SSW 13 km/h 25.7 km/h 67% 0 mm 0.0 W/m2
23:47 13.1 °C 7.1 °C 1010 hPa SSW 28.8 km/h 29 km/h 67% 0 mm 0.0 W/m2
23:52 12.9 °C 7.1 °C 1010 hPa SSW 16.3 km/h 29 km/h 68% 0 mm 0.0 W/m2
Canyon Roadhouse, Fishriver Canyon, Namibia
Compliments of Weather Underground - 2.25 mb